sensor_id;sensor_type;location;lat;lon;timestamp;temperature;humidity
15609;DHT22;64278;45.642;13.756;2022-12-31T00:01:35;21.90;75.80
15609;DHT22;64278;45.642;13.756;2022-12-31T00:04:00;21.80;75.70
15609;DHT22;64278;45.642;13.756;2022-12-31T00:06:31;21.80;75.70
15609;DHT22;64278;45.642;13.756;2022-12-31T00:09:02;21.80;75.70
15609;DHT22;64278;45.642;13.756;2022-12-31T00:11:29;21.80;75.70
15609;DHT22;64278;45.642;13.756;2022-12-31T00:13:55;21.80;75.70
15609;DHT22;64278;45.642;13.756;2022-12-31T00:16:23;21.80;75.70
15609;DHT22;64278;45.642;13.756;2022-12-31T00:18:52;21.80;75.70
15609;DHT22;64278;45.642;13.756;2022-12-31T00:21:19;21.80;75.70
15609;DHT22;64278;45.642;13.756;2022-12-31T00:23:45;21.80;75.70
15609;DHT22;64278;45.642;13.756;2022-12-31T00:26:14;21.80;75.70
15609;DHT22;64278;45.642;13.756;2022-12-31T00:28:41;21.80;75.70
15609;DHT22;64278;45.642;13.756;2022-12-31T00:31:13;21.80;75.70
15609;DHT22;64278;45.642;13.756;2022-12-31T00:33:39;21.80;75.70
15609;DHT22;64278;45.642;13.756;2022-12-31T00:36:13;21.70;75.60
15609;DHT22;64278;45.642;13.756;2022-12-31T00:38:41;21.80;75.60
15609;DHT22;64278;45.642;13.756;2022-12-31T00:41:07;21.80;75.60
15609;DHT22;64278;45.642;13.756;2022-12-31T00:43:33;21.70;75.50
15609;DHT22;64278;45.642;13.756;2022-12-31T00:45:59;21.70;75.50
15609;DHT22;64278;45.642;13.756;2022-12-31T00:48:26;21.70;75.50
15609;DHT22;64278;45.642;13.756;2022-12-31T00:50:52;21.70;75.50
15609;DHT22;64278;45.642;13.756;2022-12-31T00:53:18;21.70;75.40
15609;DHT22;64278;45.642;13.756;2022-12-31T00:55:44;21.70;75.40
15609;DHT22;64278;45.642;13.756;2022-12-31T00:58:09;21.70;75.40
15609;DHT22;64278;45.642;13.756;2022-12-31T01:00:36;21.70;75.30
15609;DHT22;64278;45.642;13.756;2022-12-31T01:03:01;21.70;75.30
15609;DHT22;64278;45.642;13.756;2022-12-31T01:05:29;21.70;75.30
15609;DHT22;64278;45.642;13.756;2022-12-31T01:07:55;21.70;75.30
15609;DHT22;64278;45.642;13.756;2022-12-31T01:10:20;21.70;75.30
15609;DHT22;64278;45.642;13.756;2022-12-31T01:13:05;21.70;75.20
15609;DHT22;64278;45.642;13.756;2022-12-31T01:15:35;21.70;75.20
15609;DHT22;64278;45.642;13.756;2022-12-31T01:18:02;21.70;75.10
15609;DHT22;64278;45.642;13.756;2022-12-31T01:20:33;21.70;75.10
15609;DHT22;64278;45.642;13.756;2022-12-31T01:22:59;21.70;75.10
15609;DHT22;64278;45.642;13.756;2022-12-31T01:25:25;21.70;75.10
15609;DHT22;64278;45.642;13.756;2022-12-31T01:27:50;21.70;75.10
15609;DHT22;64278;45.642;13.756;2022-12-31T01:30:16;21.60;75.00
15609;DHT22;64278;45.642;13.756;2022-12-31T01:32:42;21.60;75.00
15609;DHT22;64278;45.642;13.756;2022-12-31T01:35:08;21.60;74.90
15609;DHT22;64278;45.642;13.756;2022-12-31T01:37:33;21.60;74.90
15609;DHT22;64278;45.642;13.756;2022-12-31T01:39:59;21.60;74.90
15609;DHT22;64278;45.642;13.756;2022-12-31T01:42:25;21.60;74.80
15609;DHT22;64278;45.642;13.756;2022-12-31T01:44:53;21.60;74.80
15609;DHT22;64278;45.642;13.756;2022-12-31T01:47:28;21.60;74.80
15609;DHT22;64278;45.642;13.756;2022-12-31T01:50:00;21.60;74.80
15609;DHT22;64278;45.642;13.756;2022-12-31T01:52:31;21.60;74.70
15609;DHT22;64278;45.642;13.756;2022-12-31T01:54:59;21.60;74.60
15609;DHT22;64278;45.642;13.756;2022-12-31T01:57:27;21.60;74.60
15609;DHT22;64278;45.642;13.756;2022-12-31T01:59:54;21.60;74.60
15609;DHT22;64278;45.642;13.756;2022-12-31T02:02:20;21.60;74.60
15609;DHT22;64278;45.642;13.756;2022-12-31T02:04:47;21.60;74.50
15609;DHT22;64278;45.642;13.756;2022-12-31T02:07:13;21.50;74.50
15609;DHT22;64278;45.642;13.756;2022-12-31T02:09:40;21.50;74.50
15609;DHT22;64278;45.642;13.756;2022-12-31T02:12:07;21.50;74.40
15609;DHT22;64278;45.642;13.756;2022-12-31T02:14:36;21.50;74.30
15609;DHT22;64278;45.642;13.756;2022-12-31T02:17:16;21.50;74.20
15609;DHT22;64278;45.642;13.756;2022-12-31T02:30:38;21.50;74.20
15609;DHT22;64278;45.642;13.756;2022-12-31T02:36:12;21.50;74.10
15609;DHT22;64278;45.642;13.756;2022-12-31T02:38:42;21.50;74.10
15609;DHT22;64278;45.642;13.756;2022-12-31T02:41:17;21.50;74.20
15609;DHT22;64278;45.642;13.756;2022-12-31T02:44:29;21.40;74.10
15609;DHT22;64278;45.642;13.756;2022-12-31T03:00:26;21.40;74.00
15609;DHT22;64278;45.642;13.756;2022-12-31T03:03:12;21.40;74.00
15609;DHT22;64278;45.642;13.756;2022-12-31T03:05:40;21.40;74.00
15609;DHT22;64278;45.642;13.756;2022-12-31T03:08:06;21.40;74.00
15609;DHT22;64278;45.642;13.756;2022-12-31T03:10:32;21.40;74.00
15609;DHT22;64278;45.642;13.756;2022-12-31T03:13:00;21.40;73.90
15609;DHT22;64278;45.642;13.756;2022-12-31T03:15:31;21.40;73.90
15609;DHT22;64278;45.642;13.756;2022-12-31T03:18:17;21.40;74.00
15609;DHT22;64278;45.642;13.756;2022-12-31T03:20:48;21.40;73.90
15609;DHT22;64278;45.642;13.756;2022-12-31T03:23:38;21.40;74.70
15609;DHT22;64278;45.642;13.756;2022-12-31T03:26:05;21.40;73.90
15609;DHT22;64278;45.642;13.756;2022-12-31T03:28:35;21.40;73.90
15609;DHT22;64278;45.642;13.756;2022-12-31T03:31:02;21.40;73.90
15609;DHT22;64278;45.642;13.756;2022-12-31T03:33:36;21.30;73.90
15609;DHT22;64278;45.642;13.756;2022-12-31T03:36:07;21.30;73.90
15609;DHT22;64278;45.642;13.756;2022-12-31T03:38:33;21.30;73.90
15609;DHT22;64278;45.642;13.756;2022-12-31T03:40:59;21.30;73.90
15609;DHT22;64278;45.642;13.756;2022-12-31T03:43:25;21.30;73.90
15609;DHT22;64278;45.642;13.756;2022-12-31T03:45:52;21.30;73.90
15609;DHT22;64278;45.642;13.756;2022-12-31T03:48:19;21.30;73.90
15609;DHT22;64278;45.642;13.756;2022-12-31T03:50:46;21.30;73.90
15609;DHT22;64278;45.642;13.756;2022-12-31T03:53:11;21.30;73.90
15609;DHT22;64278;45.642;13.756;2022-12-31T03:55:37;21.30;73.90
15609;DHT22;64278;45.642;13.756;2022-12-31T03:58:03;21.30;73.90
15609;DHT22;64278;45.642;13.756;2022-12-31T04:00:28;21.30;73.90
15609;DHT22;64278;45.642;13.756;2022-12-31T04:02:54;21.30;73.90
15609;DHT22;64278;45.642;13.756;2022-12-31T04:05:21;21.30;73.80
15609;DHT22;64278;45.642;13.756;2022-12-31T04:07:47;21.30;73.80
15609;DHT22;64278;45.642;13.756;2022-12-31T04:10:15;21.30;73.80
15609;DHT22;64278;45.642;13.756;2022-12-31T04:12:41;21.30;73.80
15609;DHT22;64278;45.642;13.756;2022-12-31T04:15:08;21.30;73.80
15609;DHT22;64278;45.642;13.756;2022-12-31T04:17:34;21.30;73.80
15609;DHT22;64278;45.642;13.756;2022-12-31T04:20:00;21.30;73.80
15609;DHT22;64278;45.642;13.756;2022-12-31T04:22:25;21.30;73.80
15609;DHT22;64278;45.642;13.756;2022-12-31T04:24:51;21.30;73.80
15609;DHT22;64278;45.642;13.756;2022-12-31T04:27:16;21.30;73.80
15609;DHT22;64278;45.642;13.756;2022-12-31T04:29:42;21.30;73.80
15609;DHT22;64278;45.642;13.756;2022-12-31T04:32:09;21.30;73.80
15609;DHT22;64278;45.642;13.756;2022-12-31T04:34:35;21.20;73.70
15609;DHT22;64278;45.642;13.756;2022-12-31T04:37:01;21.20;73.70
15609;DHT22;64278;45.642;13.756;2022-12-31T04:39:27;21.30;73.70
15609;DHT22;64278;45.642;13.756;2022-12-31T04:41:53;21.20;73.70
15609;DHT22;64278;45.642;13.756;2022-12-31T04:44:19;21.20;73.60
15609;DHT22;64278;45.642;13.756;2022-12-31T04:46:45;21.20;73.70
15609;DHT22;64278;45.642;13.756;2022-12-31T04:49:11;21.20;73.60
15609;DHT22;64278;45.642;13.756;2022-12-31T04:51:37;21.20;73.60
15609;DHT22;64278;45.642;13.756;2022-12-31T04:54:03;21.20;73.60
15609;DHT22;64278;45.642;13.756;2022-12-31T04:56:30;21.20;73.60
15609;DHT22;64278;45.642;13.756;2022-12-31T04:58:57;21.20;73.70
15609;DHT22;64278;45.642;13.756;2022-12-31T05:01:23;21.20;73.70
15609;DHT22;64278;45.642;13.756;2022-12-31T05:03:49;21.20;73.60
15609;DHT22;64278;45.642;13.756;2022-12-31T05:06:18;21.20;73.60
15609;DHT22;64278;45.642;13.756;2022-12-31T05:08:44;21.20;73.60
15609;DHT22;64278;45.642;13.756;2022-12-31T05:11:11;21.20;73.70
15609;DHT22;64278;45.642;13.756;2022-12-31T05:13:37;21.20;73.60
15609;DHT22;64278;45.642;13.756;2022-12-31T05:16:03;21.20;73.70
15609;DHT22;64278;45.642;13.756;2022-12-31T05:18:30;21.20;73.70
15609;DHT22;64278;45.642;13.756;2022-12-31T05:20:56;21.20;74.10
15609;DHT22;64278;45.642;13.756;2022-12-31T05:23:22;21.20;73.70
15609;DHT22;64278;45.642;13.756;2022-12-31T05:25:48;21.20;73.70
15609;DHT22;64278;45.642;13.756;2022-12-31T05:28:15;21.20;73.70
15609;DHT22;64278;45.642;13.756;2022-12-31T05:30:42;21.20;73.70
15609;DHT22;64278;45.642;13.756;2022-12-31T05:33:08;21.20;73.70
15609;DHT22;64278;45.642;13.756;2022-12-31T05:35:33;21.10;73.60
15609;DHT22;64278;45.642;13.756;2022-12-31T05:38:00;21.20;73.70
15609;DHT22;64278;45.642;13.756;2022-12-31T05:40:26;21.20;73.70
15609;DHT22;64278;45.642;13.756;2022-12-31T05:42:52;21.10;73.60
15609;DHT22;64278;45.642;13.756;2022-12-31T05:45:18;21.10;73.60
15609;DHT22;64278;45.642;13.756;2022-12-31T05:47:44;21.10;73.60
15609;DHT22;64278;45.642;13.756;2022-12-31T05:50:12;21.10;73.60
15609;DHT22;64278;45.642;13.756;2022-12-31T05:52:40;21.10;73.60
15609;DHT22;64278;45.642;13.756;2022-12-31T05:55:07;21.10;73.60
15609;DHT22;64278;45.642;13.756;2022-12-31T05:57:33;21.10;73.60
15609;DHT22;64278;45.642;13.756;2022-12-31T05:59:58;21.10;73.60
15609;DHT22;64278;45.642;13.756;2022-12-31T06:02:24;21.10;73.70
15609;DHT22;64278;45.642;13.756;2022-12-31T06:04:50;21.10;73.70
15609;DHT22;64278;45.642;13.756;2022-12-31T06:07:16;21.10;73.70
15609;DHT22;64278;45.642;13.756;2022-12-31T06:09:42;21.10;73.70
15609;DHT22;64278;45.642;13.756;2022-12-31T06:12:07;21.10;73.60
15609;DHT22;64278;45.642;13.756;2022-12-31T06:14:34;21.10;73.60
15609;DHT22;64278;45.642;13.756;2022-12-31T06:17:00;21.10;73.60
15609;DHT22;64278;45.642;13.756;2022-12-31T06:19:26;21.10;73.60
15609;DHT22;64278;45.642;13.756;2022-12-31T06:21:51;21.10;73.60
15609;DHT22;64278;45.642;13.756;2022-12-31T06:24:17;21.10;73.60
15609;DHT22;64278;45.642;13.756;2022-12-31T06:26:43;21.10;73.60
15609;DHT22;64278;45.642;13.756;2022-12-31T06:29:09;21.10;73.60
15609;DHT22;64278;45.642;13.756;2022-12-31T06:31:35;21.10;73.60
15609;DHT22;64278;45.642;13.756;2022-12-31T06:34:01;21.10;73.50
15609;DHT22;64278;45.642;13.756;2022-12-31T06:36:27;21.10;73.50
15609;DHT22;64278;45.642;13.756;2022-12-31T06:38:52;21.10;73.50
15609;DHT22;64278;45.642;13.756;2022-12-31T06:41:18;21.10;73.50
15609;DHT22;64278;45.642;13.756;2022-12-31T06:43:44;21.10;73.50
15609;DHT22;64278;45.642;13.756;2022-12-31T06:46:12;21.10;73.50
15609;DHT22;64278;45.642;13.756;2022-12-31T06:48:38;21.10;73.50
15609;DHT22;64278;45.642;13.756;2022-12-31T06:51:08;21.00;73.40
15609;DHT22;64278;45.642;13.756;2022-12-31T06:53:34;21.00;73.50
15609;DHT22;64278;45.642;13.756;2022-12-31T06:56:21;21.00;73.40
15609;DHT22;64278;45.642;13.756;2022-12-31T06:58:48;21.10;73.50
15609;DHT22;64278;45.642;13.756;2022-12-31T07:07:31;21.00;73.40
15609;DHT22;64278;45.642;13.756;2022-12-31T07:15:35;21.00;73.40
15609;DHT22;64278;45.642;13.756;2022-12-31T07:18:22;21.00;73.40
15609;DHT22;64278;45.642;13.756;2022-12-31T07:20:48;21.00;73.40
15609;DHT22;64278;45.642;13.756;2022-12-31T07:23:14;21.00;73.70
15609;DHT22;64278;45.642;13.756;2022-12-31T07:25:45;21.00;73.40
15609;DHT22;64278;45.642;13.756;2022-12-31T07:28:35;21.00;73.50
15609;DHT22;64278;45.642;13.756;2022-12-31T07:31:31;21.00;73.40
15609;DHT22;64278;45.642;13.756;2022-12-31T07:34:02;21.00;73.50
15609;DHT22;64278;45.642;13.756;2022-12-31T07:36:54;21.00;73.40
15609;DHT22;64278;45.642;13.756;2022-12-31T07:39:30;21.00;73.40
15609;DHT22;64278;45.642;13.756;2022-12-31T07:45:03;21.00;73.40
15609;DHT22;64278;45.642;13.756;2022-12-31T07:47:35;21.00;73.40
15609;DHT22;64278;45.642;13.756;2022-12-31T07:50:01;21.00;73.40
15609;DHT22;64278;45.642;13.756;2022-12-31T07:52:27;21.00;73.30
15609;DHT22;64278;45.642;13.756;2022-12-31T07:54:53;21.00;73.40
15609;DHT22;64278;45.642;13.756;2022-12-31T07:57:19;21.00;73.30
15609;DHT22;64278;45.642;13.756;2022-12-31T08:05:59;21.00;73.40
15609;DHT22;64278;45.642;13.756;2022-12-31T08:11:31;21.00;73.50
15609;DHT22;64278;45.642;13.756;2022-12-31T08:14:00;21.00;73.50
15609;DHT22;64278;45.642;13.756;2022-12-31T08:16:27;21.00;73.50
15609;DHT22;64278;45.642;13.756;2022-12-31T08:18:53;20.90;73.40
15609;DHT22;64278;45.642;13.756;2022-12-31T08:33:25;20.90;73.40
15609;DHT22;64278;45.642;13.756;2022-12-31T08:38:43;20.90;73.50
15609;DHT22;64278;45.642;13.756;2022-12-31T08:41:28;20.90;73.50
15609;DHT22;64278;45.642;13.756;2022-12-31T08:49:35;20.90;73.50
15609;DHT22;64278;45.642;13.756;2022-12-31T08:52:01;20.90;73.50
15609;DHT22;64278;45.642;13.756;2022-12-31T08:54:28;20.90;74.20
15609;DHT22;64278;45.642;13.756;2022-12-31T09:02:50;21.00;73.50
15609;DHT22;64278;45.642;13.756;2022-12-31T09:15:35;21.00;73.20
15609;DHT22;64278;45.642;13.756;2022-12-31T09:18:02;21.00;73.20
15609;DHT22;64278;45.642;13.756;2022-12-31T09:20:30;21.00;73.20
15609;DHT22;64278;45.642;13.756;2022-12-31T09:22:58;20.90;73.10
15609;DHT22;64278;45.642;13.756;2022-12-31T09:25:25;21.00;73.20
15609;DHT22;64278;45.642;13.756;2022-12-31T09:31:09;20.90;73.10
15609;DHT22;64278;45.642;13.756;2022-12-31T09:33:56;20.90;73.20
15609;DHT22;64278;45.642;13.756;2022-12-31T09:36:38;20.90;73.20
15609;DHT22;64278;45.642;13.756;2022-12-31T09:39:21;20.90;73.20
15609;DHT22;64278;45.642;13.756;2022-12-31T09:42:03;20.90;73.20
15609;DHT22;64278;45.642;13.756;2022-12-31T09:45:04;20.90;73.20
15609;DHT22;64278;45.642;13.756;2022-12-31T09:50:53;20.90;73.20
15609;DHT22;64278;45.642;13.756;2022-12-31T09:56:24;20.90;73.20
15609;DHT22;64278;45.642;13.756;2022-12-31T09:59:12;21.00;73.30
15609;DHT22;64278;45.642;13.756;2022-12-31T10:12:31;21.00;73.10
15609;DHT22;64278;45.642;13.756;2022-12-31T10:18:31;20.90;72.90
15609;DHT22;64278;45.642;13.756;2022-12-31T10:29:57;20.80;69.60
15609;DHT22;64278;45.642;13.756;2022-12-31T10:46:24;20.40;68.20
15609;DHT22;64278;45.642;13.756;2022-12-31T11:00:20;20.20;68.40
15609;DHT22;64278;45.642;13.756;2022-12-31T11:28:01;20.20;71.40
15609;DHT22;64278;45.642;13.756;2022-12-31T11:30:42;20.30;71.40
15609;DHT22;64278;45.642;13.756;2022-12-31T11:38:37;20.40;72.10
15609;DHT22;64278;45.642;13.756;2022-12-31T11:41:27;20.40;72.60
15609;DHT22;64278;45.642;13.756;2022-12-31T11:52:26;20.40;73.90
15609;DHT22;64278;45.642;13.756;2022-12-31T11:57:38;20.40;74.80
15609;DHT22;64278;45.642;13.756;2022-12-31T12:00:15;20.50;74.20
15609;DHT22;64278;45.642;13.756;2022-12-31T12:03:04;20.50;74.20
15609;DHT22;64278;45.642;13.756;2022-12-31T12:05:31;20.50;74.40
15609;DHT22;64278;45.642;13.756;2022-12-31T12:07:58;20.50;74.10
15609;DHT22;64278;45.642;13.756;2022-12-31T12:10:30;20.50;74.10
15609;DHT22;64278;45.642;13.756;2022-12-31T12:12:57;20.50;74.10
15609;DHT22;64278;45.642;13.756;2022-12-31T12:15:26;20.50;74.10
15609;DHT22;64278;45.642;13.756;2022-12-31T12:17:56;20.50;74.10
15609;DHT22;64278;45.642;13.756;2022-12-31T12:20:35;20.50;74.10
15609;DHT22;64278;45.642;13.756;2022-12-31T12:23:13;20.50;74.10
15609;DHT22;64278;45.642;13.756;2022-12-31T12:25:43;20.50;74.00
15609;DHT22;64278;45.642;13.756;2022-12-31T12:28:23;20.50;74.00
15609;DHT22;64278;45.642;13.756;2022-12-31T12:31:01;20.50;73.90
15609;DHT22;64278;45.642;13.756;2022-12-31T12:33:29;20.50;73.90
15609;DHT22;64278;45.642;13.756;2022-12-31T12:36:27;20.50;73.90
15609;DHT22;64278;45.642;13.756;2022-12-31T12:39:01;20.50;73.80
15609;DHT22;64278;45.642;13.756;2022-12-31T12:41:27;20.50;73.80
15609;DHT22;64278;45.642;13.756;2022-12-31T12:44:05;20.50;73.70
15609;DHT22;64278;45.642;13.756;2022-12-31T12:46:43;20.50;73.70
15609;DHT22;64278;45.642;13.756;2022-12-31T12:49:43;20.50;73.60
15609;DHT22;64278;45.642;13.756;2022-12-31T13:00:28;20.50;73.40
15609;DHT22;64278;45.642;13.756;2022-12-31T13:03:21;20.50;73.40
15609;DHT22;64278;45.642;13.756;2022-12-31T13:14:40;20.50;73.40
15609;DHT22;64278;45.642;13.756;2022-12-31T13:24:24;20.50;73.20
15609;DHT22;64278;45.642;13.756;2022-12-31T13:29:29;20.50;73.20
15609;DHT22;64278;45.642;13.756;2022-12-31T13:32:00;20.50;73.20
15609;DHT22;64278;45.642;13.756;2022-12-31T13:34:30;20.50;73.20
15609;DHT22;64278;45.642;13.756;2022-12-31T13:37:03;20.50;73.10
15609;DHT22;64278;45.642;13.756;2022-12-31T13:39:36;20.50;73.10
15609;DHT22;64278;45.642;13.756;2022-12-31T13:42:34;20.50;73.00
15609;DHT22;64278;45.642;13.756;2022-12-31T13:45:04;20.50;73.00
15609;DHT22;64278;45.642;13.756;2022-12-31T13:47:40;20.50;73.00
15609;DHT22;64278;45.642;13.756;2022-12-31T13:50:14;20.50;73.00
15609;DHT22;64278;45.642;13.756;2022-12-31T13:52:47;20.50;72.90
15609;DHT22;64278;45.642;13.756;2022-12-31T14:00:33;20.50;72.80
15609;DHT22;64278;45.642;13.756;2022-12-31T14:05:33;20.50;72.80
15609;DHT22;64278;45.642;13.756;2022-12-31T14:08:01;20.40;73.40
15609;DHT22;64278;45.642;13.756;2022-12-31T14:24:17;20.50;72.60
15609;DHT22;64278;45.642;13.756;2022-12-31T14:26:51;20.50;72.90
15609;DHT22;64278;45.642;13.756;2022-12-31T14:51:30;20.20;68.00
15609;DHT22;64278;45.642;13.756;2022-12-31T14:53:58;20.20;68.20
15609;DHT22;64278;45.642;13.756;2022-12-31T14:56:43;20.10;68.20
15609;DHT22;64278;45.642;13.756;2022-12-31T14:59:27;20.10;68.30
15609;DHT22;64278;45.642;13.756;2022-12-31T15:01:53;20.00;68.40
15609;DHT22;64278;45.642;13.756;2022-12-31T15:04:40;19.90;68.20
15609;DHT22;64278;45.642;13.756;2022-12-31T15:07:17;19.80;68.40
15609;DHT22;64278;45.642;13.756;2022-12-31T15:13:03;19.70;68.60
15609;DHT22;64278;45.642;13.756;2022-12-31T15:23:35;19.30;71.70
15609;DHT22;64278;45.642;13.756;2022-12-31T15:26:02;19.40;71.60
15609;DHT22;64278;45.642;13.756;2022-12-31T15:28:37;19.60;71.40
15609;DHT22;64278;45.642;13.756;2022-12-31T15:34:02;19.90;70.90
15609;DHT22;64278;45.642;13.756;2022-12-31T15:36:34;20.00;70.60
15609;DHT22;64278;45.642;13.756;2022-12-31T15:41:46;20.30;70.50
15609;DHT22;64278;45.642;13.756;2022-12-31T15:44:55;20.40;70.60
15609;DHT22;64278;45.642;13.756;2022-12-31T15:47:36;20.50;70.60
15609;DHT22;64278;45.642;13.756;2022-12-31T15:50:16;20.60;71.30
15609;DHT22;64278;45.642;13.756;2022-12-31T15:52:46;20.70;71.70
15609;DHT22;64278;45.642;13.756;2022-12-31T15:58:15;20.80;73.60
15609;DHT22;64278;45.642;13.756;2022-12-31T16:01:08;20.90;73.80
15609;DHT22;64278;45.642;13.756;2022-12-31T16:03:34;20.90;74.00
15609;DHT22;64278;45.642;13.756;2022-12-31T16:06:03;20.90;74.00
15609;DHT22;64278;45.642;13.756;2022-12-31T16:08:33;21.00;74.10
15609;DHT22;64278;45.642;13.756;2022-12-31T16:11:01;21.00;74.10
15609;DHT22;64278;45.642;13.756;2022-12-31T16:13:28;21.00;74.10
15609;DHT22;64278;45.642;13.756;2022-12-31T16:16:06;21.10;74.10
15609;DHT22;64278;45.642;13.756;2022-12-31T16:18:39;21.10;74.10
15609;DHT22;64278;45.642;13.756;2022-12-31T16:21:21;21.10;73.80
15609;DHT22;64278;45.642;13.756;2022-12-31T16:23:58;21.10;73.70
15609;DHT22;64278;45.642;13.756;2022-12-31T16:26:49;21.20;73.60
15609;DHT22;64278;45.642;13.756;2022-12-31T16:29:15;21.20;73.60
15609;DHT22;64278;45.642;13.756;2022-12-31T16:31:43;21.20;73.50
15609;DHT22;64278;45.642;13.756;2022-12-31T16:34:20;21.20;73.40
15609;DHT22;64278;45.642;13.756;2022-12-31T16:37:03;21.30;73.60
15609;DHT22;64278;45.642;13.756;2022-12-31T16:39:31;21.30;73.80
15609;DHT22;64278;45.642;13.756;2022-12-31T16:44:38;21.30;74.40
15609;DHT22;64278;45.642;13.756;2022-12-31T16:47:05;21.30;74.60
15609;DHT22;64278;45.642;13.756;2022-12-31T16:49:34;21.30;74.90
15609;DHT22;64278;45.642;13.756;2022-12-31T16:52:04;21.40;75.30
15609;DHT22;64278;45.642;13.756;2022-12-31T16:54:38;21.40;75.60
15609;DHT22;64278;45.642;13.756;2022-12-31T16:57:05;21.40;76.10
15609;DHT22;64278;45.642;13.756;2022-12-31T16:59:40;21.40;76.30
15609;DHT22;64278;45.642;13.756;2022-12-31T17:02:18;21.40;76.50
15609;DHT22;64278;45.642;13.756;2022-12-31T17:04:49;21.40;76.70
15609;DHT22;64278;45.642;13.756;2022-12-31T17:10:24;21.40;77.00
15609;DHT22;64278;45.642;13.756;2022-12-31T17:12:56;21.40;77.10
15609;DHT22;64278;45.642;13.756;2022-12-31T17:15:48;21.40;77.20
15609;DHT22;64278;45.642;13.756;2022-12-31T17:18:25;21.40;77.40
15609;DHT22;64278;45.642;13.756;2022-12-31T17:20:52;21.40;77.50
15609;DHT22;64278;45.642;13.756;2022-12-31T17:23:27;21.40;77.40
15609;DHT22;64278;45.642;13.756;2022-12-31T17:25:58;21.40;77.30
15609;DHT22;64278;45.642;13.756;2022-12-31T17:28:25;21.40;77.20
15609;DHT22;64278;45.642;13.756;2022-12-31T17:30:51;21.40;77.10
15609;DHT22;64278;45.642;13.756;2022-12-31T17:35:46;21.40;77.00
15609;DHT22;64278;45.642;13.756;2022-12-31T17:40:51;21.40;76.80
15609;DHT22;64278;45.642;13.756;2022-12-31T17:43:19;21.40;76.60
15609;DHT22;64278;45.642;13.756;2022-12-31T17:45:46;21.40;76.50
15609;DHT22;64278;45.642;13.756;2022-12-31T17:48:15;21.40;76.50
15609;DHT22;64278;45.642;13.756;2022-12-31T17:53:13;21.40;76.40
15609;DHT22;64278;45.642;13.756;2022-12-31T17:55:40;21.40;76.30
15609;DHT22;64278;45.642;13.756;2022-12-31T17:58:07;21.40;76.20
15609;DHT22;64278;45.642;13.756;2022-12-31T18:00:37;21.30;76.10
15609;DHT22;64278;45.642;13.756;2022-12-31T18:03:03;21.30;76.00
15609;DHT22;64278;45.642;13.756;2022-12-31T18:05:29;21.30;75.90
15609;DHT22;64278;45.642;13.756;2022-12-31T18:07:55;21.30;75.80
15609;DHT22;64278;45.642;13.756;2022-12-31T18:10:22;21.30;75.80
15609;DHT22;64278;45.642;13.756;2022-12-31T18:12:49;21.30;75.70
15609;DHT22;64278;45.642;13.756;2022-12-31T18:15:18;21.30;75.70
15609;DHT22;64278;45.642;13.756;2022-12-31T18:17:44;21.30;75.60
15609;DHT22;64278;45.642;13.756;2022-12-31T18:20:10;21.30;75.60
15609;DHT22;64278;45.642;13.756;2022-12-31T18:22:37;21.30;75.50
15609;DHT22;64278;45.642;13.756;2022-12-31T18:25:03;21.30;75.50
15609;DHT22;64278;45.642;13.756;2022-12-31T18:27:31;21.30;75.50
15609;DHT22;64278;45.642;13.756;2022-12-31T18:29:58;21.30;75.40
15609;DHT22;64278;45.642;13.756;2022-12-31T18:32:26;21.30;75.40
15609;DHT22;64278;45.642;13.756;2022-12-31T18:34:53;21.30;75.40
15609;DHT22;64278;45.642;13.756;2022-12-31T18:37:19;21.30;75.40
15609;DHT22;64278;45.642;13.756;2022-12-31T18:39:45;21.30;75.30
15609;DHT22;64278;45.642;13.756;2022-12-31T18:42:18;21.30;75.30
15609;DHT22;64278;45.642;13.756;2022-12-31T18:44:45;21.30;75.30
15609;DHT22;64278;45.642;13.756;2022-12-31T18:47:16;21.30;75.30
15609;DHT22;64278;45.642;13.756;2022-12-31T18:49:42;21.30;75.30
15609;DHT22;64278;45.642;13.756;2022-12-31T18:52:18;21.30;75.30
15609;DHT22;64278;45.642;13.756;2022-12-31T18:54:45;21.30;75.30
15609;DHT22;64278;45.642;13.756;2022-12-31T18:57:12;21.30;75.20
15609;DHT22;64278;45.642;13.756;2022-12-31T18:59:38;21.30;75.20
15609;DHT22;64278;45.642;13.756;2022-12-31T19:02:14;21.30;75.20
15609;DHT22;64278;45.642;13.756;2022-12-31T19:04:40;21.30;75.20
15609;DHT22;64278;45.642;13.756;2022-12-31T19:07:05;21.20;75.10
15609;DHT22;64278;45.642;13.756;2022-12-31T19:09:31;21.20;75.10
15609;DHT22;64278;45.642;13.756;2022-12-31T19:11:57;21.20;75.10
15609;DHT22;64278;45.642;13.756;2022-12-31T19:14:23;21.20;75.00
15609;DHT22;64278;45.642;13.756;2022-12-31T19:16:51;21.20;75.00
15609;DHT22;64278;45.642;13.756;2022-12-31T19:19:17;21.20;74.90
15609;DHT22;64278;45.642;13.756;2022-12-31T19:21:44;21.20;74.90
15609;DHT22;64278;45.642;13.756;2022-12-31T19:24:22;21.20;74.80
15609;DHT22;64278;45.642;13.756;2022-12-31T19:26:48;21.20;74.80
15609;DHT22;64278;45.642;13.756;2022-12-31T19:31:43;21.20;75.50
15609;DHT22;64278;45.642;13.756;2022-12-31T19:34:09;21.20;74.60
15609;DHT22;64278;45.642;13.756;2022-12-31T19:36:36;21.20;74.60
15609;DHT22;64278;45.642;13.756;2022-12-31T19:39:03;21.20;74.60
15609;DHT22;64278;45.642;13.756;2022-12-31T19:41:29;21.20;74.60
15609;DHT22;64278;45.642;13.756;2022-12-31T19:43:54;21.20;74.50
15609;DHT22;64278;45.642;13.756;2022-12-31T19:46:20;21.20;74.50
15609;DHT22;64278;45.642;13.756;2022-12-31T19:48:46;21.10;74.40
15609;DHT22;64278;45.642;13.756;2022-12-31T19:51:16;21.10;74.30
15609;DHT22;64278;45.642;13.756;2022-12-31T19:53:42;21.20;74.40
15609;DHT22;64278;45.642;13.756;2022-12-31T19:56:16;21.10;74.30
15609;DHT22;64278;45.642;13.756;2022-12-31T19:58:43;21.10;74.30
15609;DHT22;64278;45.642;13.756;2022-12-31T20:01:20;21.10;74.30
15609;DHT22;64278;45.642;13.756;2022-12-31T20:03:47;21.10;74.30
15609;DHT22;64278;45.642;13.756;2022-12-31T20:06:13;21.10;74.20
15609;DHT22;64278;45.642;13.756;2022-12-31T20:08:39;21.10;74.20
15609;DHT22;64278;45.642;13.756;2022-12-31T20:13:40;21.10;74.20
15609;DHT22;64278;45.642;13.756;2022-12-31T20:16:11;21.10;74.10
15609;DHT22;64278;45.642;13.756;2022-12-31T20:18:38;21.10;74.10
15609;DHT22;64278;45.642;13.756;2022-12-31T20:21:07;21.10;74.00
15609;DHT22;64278;45.642;13.756;2022-12-31T20:23:33;21.10;74.00
15609;DHT22;64278;45.642;13.756;2022-12-31T20:26:00;21.10;74.00
15609;DHT22;64278;45.642;13.756;2022-12-31T20:28:26;21.10;73.80
15609;DHT22;64278;45.642;13.756;2022-12-31T20:30:52;21.10;73.80